Time;durP1;ratioP1;P1;durP2;ratioP2;P2;SDS_P1;SDS_P2;PMS_P1;PMS_P2;Temp;Humidity;BMP_temperature;BMP_pressure;BME280_temperature;BME280_humidity;BME280_pressure;Samples;Min_cycle;Max_cycle;Signal;HPM_P1;HPM_P2
2022/01/18 00:01:21;;;;;;;6.00;5.60;;;16.20;65.60;;;;;;5088241;27;43340;-71
2022/01/18 00:03:50;;;;;;;5.70;5.40;;;16.20;65.70;;;;;;5086972;28;44084;-70
2022/01/18 00:06:18;;;;;;;5.43;5.13;;;16.10;66.50;;;;;;5069710;28;45270;-70
2022/01/18 00:08:46;;;;;;;6.00;5.60;;;16.10;65.90;;;;;;5069383;28;44848;-71
2022/01/18 00:11:16;;;;;;;5.80;5.43;;;16.10;66.00;;;;;;5069439;28;44019;-72
2022/01/18 00:13:48;;;;;;;5.67;5.33;;;16.10;66.10;;;;;;5087900;27;43936;-70
2022/01/18 00:16:29;;;;;;;6.20;5.90;;;16.10;66.10;;;;;;5086175;28;43991;-71
2022/01/18 00:19:01;;;;;;;5.90;5.60;;;16.10;66.10;;;;;;5064505;27;44292;-71
2022/01/18 00:21:36;;;;;;;6.03;5.63;;;16.10;66.20;;;;;;5080056;28;44010;-71
2022/01/18 00:24:07;;;;;;;6.07;5.67;;;16.10;66.40;;;;;;5071030;28;43960;-71
2022/01/18 00:26:35;;;;;;;6.30;5.87;;;16.20;66.10;;;;;;5052828;28;44076;-71
2022/01/18 00:29:09;;;;;;;6.30;5.93;;;16.30;65.60;;;;;;5068957;28;44649;-71
2022/01/18 00:34:26;;;;;;;5.70;5.40;;;16.50;64.70;;;;;;5072040;28;43956;-71
2022/01/18 00:36:59;;;;;;;5.33;5.03;;;16.50;64.70;;;;;;5069764;28;45124;-70
2022/01/18 00:39:27;;;;;;;6.53;6.10;;;16.50;64.70;;;;;;5069699;28;43906;-71
2022/01/18 00:41:55;;;;;;;6.00;5.70;;;16.40;64.90;;;;;;5069120;28;43855;-71
2022/01/18 00:44:25;;;;;;;6.10;5.70;;;16.40;65.10;;;;;;5069332;28;43700;-71
2022/01/18 00:46:53;;;;;;;6.00;5.70;;;16.30;65.20;;;;;;5085645;28;43964;-71
2022/01/18 00:49:22;;;;;;;5.63;5.40;;;16.30;65.40;;;;;;5065421;28;44534;-71
2022/01/18 00:51:54;;;;;;;5.63;5.33;;;16.30;65.60;;;;;;5079245;28;43388;-71
2022/01/18 00:54:26;;;;;;;5.93;5.60;;;16.20;65.60;;;;;;5069794;28;43707;-72
2022/01/18 00:56:55;;;;;;;6.10;5.70;;;16.20;65.80;;;;;;5052401;28;44390;-71
2022/01/18 00:59:25;;;;;;;5.90;5.60;;;16.20;65.80;;;;;;5068720;28;43928;-71
2022/01/18 01:01:53;;;;;;;5.93;5.63;;;16.10;66.50;;;;;;5068933;28;43316;-70
2022/01/18 01:04:25;;;;;;;5.80;5.40;;;16.20;66.20;;;;;;5051698;28;44104;-71
2022/01/18 01:06:53;;;;;;;5.60;5.30;;;16.20;66.00;;;;;;5069184;28;44011;-73
2022/01/18 01:09:22;;;;;;;5.47;5.27;;;16.30;65.70;;;;;;5051589;28;44125;-72
2022/01/18 01:11:50;;;;;;;6.10;5.70;;;16.30;65.40;;;;;;5086954;27;43936;-70
2022/01/18 01:14:22;;;;;;;5.70;5.40;;;16.30;65.60;;;;;;5069277;28;43963;-71
2022/01/18 01:17:12;;;;;;;6.13;5.73;;;16.20;65.60;;;;;;5069287;28;46280;-71
2022/01/18 01:32:10;;;;;;;6.00;5.60;;;16.20;65.80;;;;;;5054246;28;44062;-71
2022/01/18 01:34:33;;;;;;;5.40;5.20;;;16.10;66.20;;;;;;5070944;28;43970;-71
2022/01/18 01:42:58;;;;;;;5.43;5.13;;;16.10;66.30;;;;;;5070381;28;45427;-71
2022/01/18 01:45:28;;;;;;;6.03;5.70;;;16.10;66.50;;;;;;5070932;28;43935;-71
2022/01/18 01:47:57;;;;;;;5.83;5.53;;;16.10;66.30;;;;;;5068575;28;43874;-71
2022/01/18 01:50:29;;;;;;;6.27;5.87;;;16.30;66.10;;;;;;5067958;28;44011;-72
2022/01/18 01:52:57;;;;;;;5.43;5.13;;;16.40;65.50;;;;;;5068809;28;43820;-71
2022/01/18 01:55:26;;;;;;;5.80;5.43;;;16.50;65.00;;;;;;5068252;28;43950;-70
2022/01/18 01:57:54;;;;;;;5.67;5.37;;;16.60;64.90;;;;;;5068301;28;43947;-72
2022/01/18 02:00:23;;;;;;;5.40;5.17;;;16.50;64.70;;;;;;5068511;28;46043;-71
2022/01/18 02:02:51;;;;;;;5.73;5.43;;;16.50;64.80;;;;;;5084771;27;43408;-71
2022/01/18 02:05:21;;;;;;;5.63;5.30;;;16.40;64.90;;;;;;5068402;28;43972;-72
2022/01/18 02:07:51;;;;;;;5.87;5.50;;;16.40;65.10;;;;;;5069005;28;43467;-71
2022/01/18 02:10:19;;;;;;;6.00;5.70;;;16.30;65.30;;;;;;5067789;28;44006;-71
2022/01/18 02:12:48;;;;;;;5.47;5.17;;;16.30;65.50;;;;;;5084622;28;43441;-70
2022/01/18 02:15:22;;;;;;;5.80;5.50;;;16.20;65.60;;;;;;5086141;27;43884;-70
2022/01/18 02:23:23;;;;;;;6.00;5.60;;;16.20;65.90;;;;;;5083953;28;43896;-70
2022/01/18 02:25:51;;;;;;;5.80;5.50;;;16.20;66.20;;;;;;5088173;27;43885;-70
2022/01/18 02:28:20;;;;;;;6.00;5.70;;;16.20;66.10;;;;;;5054940;28;43995;-71
2022/01/18 02:30:48;;;;;;;5.20;5.00;;;16.30;65.80;;;;;;5070740;28;44005;-70
2022/01/18 02:33:17;;;;;;;5.87;5.47;;;16.30;65.50;;;;;;5087824;27;43472;-71
2022/01/18 02:35:47;;;;;;;5.60;5.30;;;16.30;65.50;;;;;;5071247;28;43775;-71
2022/01/18 02:38:15;;;;;;;5.50;5.20;;;16.30;65.70;;;;;;5071635;28;44131;-71
2022/01/18 02:40:45;;;;;;;5.30;5.10;;;16.20;65.60;;;;;;5087331;28;44097;-70
2022/01/18 02:45:59;;;;;;;5.70;5.40;;;16.10;65.80;;;;;;5088884;27;43827;-70
2022/01/18 02:48:27;;;;;;;6.00;5.70;;;16.10;66.00;;;;;;5089366;27;43969;-71
2022/01/18 02:50:57;;;;;;;5.57;5.27;;;16.10;66.10;;;;;;5070783;28;46261;-71
2022/01/18 02:53:26;;;;;;;6.03;5.73;;;16.10;66.10;;;;;;5087290;28;43882;-70
2022/01/18 02:55:55;;;;;;;5.83;5.53;;;16.10;66.20;;;;;;5070606;28;43992;-71
2022/01/18 02:58:29;;;;;;;5.43;5.23;;;16.10;66.20;;;;;;5054186;28;43631;-70
2022/01/18 03:03:43;;;;;;;5.50;5.20;;;16.10;66.20;;;;;;5073031;28;44429;-71
2022/01/18 03:06:14;;;;;;;6.47;6.07;;;16.10;66.50;;;;;;5087451;28;43925;-71
2022/01/18 03:08:42;;;;;;;5.90;5.57;;;16.20;67.10;;;;;;5087783;28;44133;-70
2022/01/18 03:11:10;;;;;;;5.23;5.03;;;16.30;66.00;;;;;;5070283;28;43961;-70
2022/01/18 03:13:39;;;;;;;4.87;4.67;;;16.40;65.50;;;;;;5070270;28;44084;-71
2022/01/18 03:16:07;;;;;;;5.27;5.07;;;16.50;65.00;;;;;;5087426;28;44008;-71
2022/01/18 03:18:36;;;;;;;5.70;5.40;;;16.60;64.90;;;;;;5087447;28;43943;-71
2022/01/18 03:21:04;;;;;;;5.50;5.20;;;16.50;64.80;;;;;;5053514;28;45891;-70
2022/01/18 03:23:34;;;;;;;5.10;4.90;;;16.50;65.10;;;;;;5087008;28;44994;-71
2022/01/18 03:26:04;;;;;;;5.10;4.90;;;16.40;65.20;;;;;;5070137;28;43932;-72
2022/01/18 03:28:31;;;;;;;5.50;5.20;;;16.30;65.40;;;;;;5087315;28;43981;-71
2022/01/18 03:31:00;;;;;;;5.40;5.10;;;16.30;65.60;;;;;;5086128;28;44127;-71
2022/01/18 03:33:29;;;;;;;5.40;5.20;;;16.30;65.80;;;;;;5088220;27;43962;-70
2022/01/18 03:35:58;;;;;;;5.10;4.80;;;16.20;65.80;;;;;;5086656;28;43436;-70
2022/01/18 03:38:29;;;;;;;5.30;5.07;;;16.20;65.90;;;;;;5087116;28;44003;-70
2022/01/18 03:41:00;;;;;;;5.20;5.00;;;16.10;65.90;;;;;;5086628;28;45005;-70
2022/01/18 03:43:29;;;;;;;4.90;4.70;;;16.10;66.00;;;;;;5070138;28;43989;-70
2022/01/18 03:46:01;;;;;;;5.20;5.00;;;16.10;66.20;;;;;;5053344;28;43934;-71
2022/01/18 03:48:32;;;;;;;4.67;4.53;;;16.20;66.30;;;;;;5070758;28;43463;-71
2022/01/18 03:51:00;;;;;;;5.37;5.07;;;16.30;66.00;;;;;;5086908;28;44038;-70
2022/01/18 03:53:29;;;;;;;5.47;5.27;;;16.30;65.60;;;;;;5049873;28;43923;-71
2022/01/18 03:55:57;;;;;;;5.60;5.40;;;16.30;65.60;;;;;;5063233;28;44028;-71
2022/01/18 03:58:27;;;;;;;5.30;5.10;;;16.30;65.70;;;;;;5063890;28;44175;-70
2022/01/18 04:00:55;;;;;;;5.53;5.23;;;16.30;65.90;;;;;;5080207;28;45152;-70
2022/01/18 04:03:23;;;;;;;5.40;5.10;;;16.20;65.90;;;;;;5086403;27;44385;-70
2022/01/18 04:05:53;;;;;;;5.23;4.93;;;16.20;65.90;;;;;;5086559;27;43831;-70
2022/01/18 04:08:21;;;;;;;5.10;4.90;;;16.20;66.00;;;;;;5053550;28;43932;-70
2022/01/18 04:10:50;;;;;;;5.30;5.10;;;16.20;66.10;;;;;;5085851;28;45633;-70
2022/01/18 04:13:18;;;;;;;5.33;5.13;;;16.20;66.10;;;;;;5069831;28;43397;-70
2022/01/18 04:15:48;;;;;;;5.27;4.97;;;16.20;66.20;;;;;;5069719;28;44252;-71
2022/01/18 04:18:25;;;;;;;5.13;4.93;;;16.20;66.20;;;;;;5069923;28;44071;-71
2022/01/18 04:29:20;;;;;;;5.30;5.10;;;16.20;66.40;;;;;;5086691;28;43917;-70
2022/01/18 04:31:49;;;;;;;4.93;4.73;;;16.30;66.20;;;;;;5069036;28;43968;-70
2022/01/18 04:34:18;;;;;;;5.10;4.90;;;16.40;65.70;;;;;;5052473;28;44667;-70
2022/01/18 04:36:48;;;;;;;4.80;4.60;;;16.50;65.30;;;;;;5068983;28;43879;-71
2022/01/18 04:39:16;;;;;;;5.10;4.90;;;16.60;65.00;;;;;;5086060;27;43969;-71
2022/01/18 04:41:46;;;;;;;4.77;4.57;;;16.50;64.80;;;;;;5068867;28;43867;-70
2022/01/18 04:49:47;;;;;;;4.87;4.67;;;16.40;65.50;;;;;;5072014;28;44115;-70
2022/01/18 04:52:17;;;;;;;5.03;4.83;;;16.30;65.80;;;;;;5069184;28;44161;-71
2022/01/18 04:54:46;;;;;;;4.87;4.67;;;16.30;65.90;;;;;;5085275;28;43996;-71
2022/01/18 05:00:01;;;;;;;5.00;4.80;;;16.20;66.10;;;;;;5071769;28;43826;-71
2022/01/18 05:02:30;;;;;;;4.63;4.53;;;16.20;66.10;;;;;;5068625;28;44130;-71
2022/01/18 05:04:59;;;;;;;4.73;4.53;;;16.20;66.20;;;;;;5065183;28;44036;-70
2022/01/18 05:07:28;;;;;;;4.30;4.20;;;16.20;66.40;;;;;;5076261;27;43893;-71
2022/01/18 05:09:56;;;;;;;4.80;4.60;;;16.20;66.50;;;;;;5063096;28;44163;-70
2022/01/18 05:12:37;;;;;;;4.27;4.17;;;16.30;66.10;;;;;;5068543;28;43997;-69
2022/01/18 05:15:22;;;;;;;4.60;4.40;;;16.30;65.80;;;;;;5069733;28;43778;-70
2022/01/18 05:18:13;;;;;;;4.37;4.17;;;16.30;65.80;;;;;;5071039;28;44223;-70
2022/01/18 05:20:57;;;;;;;5.07;4.87;;;16.30;65.80;;;;;;5071689;28;43977;-72
2022/01/18 05:23:27;;;;;;;4.63;4.43;;;16.30;65.90;;;;;;5070908;28;44791;-71
2022/01/18 05:25:56;;;;;;;4.30;4.20;;;16.20;66.00;;;;;;5085141;28;44037;-71
2022/01/18 05:28:24;;;;;;;4.33;4.23;;;16.20;66.10;;;;;;5085093;28;43983;-70
2022/01/18 05:30:52;;;;;;;4.73;4.53;;;16.10;66.10;;;;;;5068445;28;43824;-70
2022/01/18 05:33:23;;;;;;;4.43;4.33;;;16.10;66.10;;;;;;5068652;28;45435;-70
2022/01/18 05:35:54;;;;;;;4.97;4.67;;;16.10;66.30;;;;;;5085187;27;44059;-70
2022/01/18 05:38:22;;;;;;;4.30;4.20;;;16.10;66.40;;;;;;5068545;28;44056;-70
2022/01/18 05:40:50;;;;;;;4.53;4.40;;;16.10;66.50;;;;;;5068790;28;43915;-70
2022/01/18 05:43:19;;;;;;;4.83;4.63;;;16.10;66.40;;;;;;5068281;28;43936;-70
2022/01/18 05:45:47;;;;;;;4.30;4.20;;;16.10;66.40;;;;;;5084811;28;43958;-70
2022/01/18 05:48:15;;;;;;;4.73;4.53;;;16.10;66.50;;;;;;5068441;28;43968;-71
2022/01/18 05:50:45;;;;;;;4.80;4.60;;;16.20;66.60;;;;;;5053557;28;44171;-70
2022/01/18 05:53:13;;;;;;;4.33;4.23;;;16.30;66.40;;;;;;5071318;28;45442;-70
2022/01/18 05:55:41;;;;;;;4.17;4.07;;;16.40;65.80;;;;;;5088221;28;44673;-70
2022/01/18 05:58:09;;;;;;;4.87;4.67;;;16.50;65.40;;;;;;5071570;28;44007;-70
2022/01/18 06:00:38;;;;;;;4.50;4.30;;;16.70;65.00;;;;;;5055379;28;44009;-70
2022/01/18 06:03:13;;;;;;;4.20;4.00;;;16.60;64.90;;;;;;5071431;28;43906;-70
2022/01/18 06:08:30;;;;;;;4.00;3.90;;;16.60;64.90;;;;;;5074063;28;44090;-70
2022/01/18 06:10:58;;;;;;;4.07;3.97;;;16.50;65.10;;;;;;5072030;28;44005;-70
2022/01/18 06:13:28;;;;;;;4.17;4.07;;;16.40;65.20;;;;;;5071207;28;45338;-71
2022/01/18 06:15:57;;;;;;;4.70;4.50;;;16.40;65.40;;;;;;5089001;27;43837;-70
2022/01/18 06:18:26;;;;;;;4.60;4.40;;;16.30;65.70;;;;;;5071632;28;43365;-70
2022/01/18 06:20:58;;;;;;;4.20;4.10;;;16.30;65.80;;;;;;5055067;28;44039;-69
2022/01/18 06:23:26;;;;;;;4.20;4.10;;;16.30;65.90;;;;;;5071172;28;44981;-70
2022/01/18 06:25:55;;;;;;;4.63;4.43;;;16.20;66.00;;;;;;5088167;28;44075;-70
2022/01/18 06:28:24;;;;;;;4.27;4.07;;;16.20;66.10;;;;;;5071086;28;43988;-70
2022/01/18 06:30:53;;;;;;;4.20;4.10;;;16.20;66.40;;;;;;5088136;28;43474;-70
2022/01/18 06:33:21;;;;;;;4.57;4.37;;;16.30;66.40;;;;;;5070995;28;44020;-71
2022/01/18 06:35:49;;;;;;;4.57;4.37;;;16.30;65.90;;;;;;5071042;28;43893;-71
2022/01/18 06:38:19;;;;;;;4.00;3.90;;;16.30;65.60;;;;;;5071598;28;43956;-70
2022/01/18 06:40:49;;;;;;;4.43;4.23;;;16.30;65.70;;;;;;5071422;28;44161;-70
2022/01/18 06:43:18;;;;;;;3.87;3.77;;;16.30;65.80;;;;;;5071468;28;43957;-71
2022/01/18 06:45:46;;;;;;;4.00;3.77;;;16.30;65.90;;;;;;5087460;27;44339;-70
2022/01/18 06:48:15;;;;;;;4.20;4.10;;;16.30;66.10;;;;;;5071043;28;44024;-71
2022/01/18 06:50:43;;;;;;;4.20;4.10;;;16.20;66.00;;;;;;5071351;28;44044;-71
2022/01/18 06:53:12;;;;;;;3.90;3.80;;;16.20;66.20;;;;;;5070648;28;44983;-70
2022/01/18 06:55:42;;;;;;;4.30;4.10;;;16.20;66.20;;;;;;5053693;28;43957;-70
2022/01/18 06:58:10;;;;;;;3.83;3.73;;;16.20;66.20;;;;;;5087427;28;43917;-70
2022/01/18 07:00:39;;;;;;;3.90;3.80;;;16.20;66.20;;;;;;5071092;27;44000;-71
2022/01/18 07:03:07;;;;;;;3.97;3.87;;;16.20;66.30;;;;;;5086177;27;43818;-70
2022/01/18 07:05:37;;;;;;;4.20;4.10;;;16.20;66.30;;;;;;5070560;28;44061;-71
2022/01/18 07:08:05;;;;;;;4.00;3.90;;;16.20;66.20;;;;;;5053965;28;43952;-70
2022/01/18 07:10:34;;;;;;;3.87;3.77;;;16.20;66.60;;;;;;5087699;27;43511;-71
2022/01/18 07:13:03;;;;;;;3.80;3.70;;;16.20;66.60;;;;;;5070543;28;44112;-70
2022/01/18 07:15:32;;;;;;;3.70;3.60;;;16.30;66.20;;;;;;5070804;28;43877;-70
2022/01/18 07:18:01;;;;;;;3.93;3.83;;;16.50;65.80;;;;;;5070403;28;43971;-70
2022/01/18 07:20:30;;;;;;;3.80;3.70;;;16.60;65.30;;;;;;5070957;28;43897;-70
2022/01/18 07:22:59;;;;;;;3.50;3.40;;;16.60;64.80;;;;;;5053467;28;44964;-70
2022/01/18 07:25:28;;;;;;;3.93;3.83;;;16.60;64.80;;;;;;5085926;27;43794;-70
2022/01/18 07:27:56;;;;;;;3.97;3.87;;;16.50;64.90;;;;;;5054068;28;43366;-70
2022/01/18 07:30:26;;;;;;;4.07;3.97;;;16.50;65.20;;;;;;5070295;28;43535;-69
2022/01/18 07:32:54;;;;;;;4.20;4.10;;;16.40;65.40;;;;;;5080429;28;44090;-71
2022/01/18 07:35:23;;;;;;;4.40;4.20;;;16.40;65.60;;;;;;5063615;28;44236;-70
2022/01/18 07:37:52;;;;;;;4.53;4.33;;;16.30;65.60;;;;;;5087401;28;44037;-71
2022/01/18 07:40:20;;;;;;;3.67;3.57;;;16.30;65.80;;;;;;5081537;27;43769;-70
2022/01/18 07:42:49;;;;;;;4.00;3.90;;;16.30;65.90;;;;;;5064050;28;44927;-70
2022/01/18 07:45:21;;;;;;;3.67;3.57;;;16.30;66.00;;;;;;5081873;27;43961;-70
2022/01/18 07:47:52;;;;;;;3.67;3.57;;;16.20;65.90;;;;;;5053596;28;43952;-70
2022/01/18 07:50:20;;;;;;;3.87;3.77;;;16.20;66.70;;;;;;5087476;28;43790;-70
2022/01/18 07:52:50;;;;;;;4.13;4.03;;;16.20;66.20;;;;;;5069944;28;44916;-71
2022/01/18 07:55:18;;;;;;;4.00;3.80;;;16.30;66.10;;;;;;5069728;28;43990;-71
2022/01/18 07:57:47;;;;;;;3.90;3.80;;;16.40;65.60;;;;;;5087043;28;43432;-70
2022/01/18 08:00:17;;;;;;;3.93;3.77;;;16.40;65.20;;;;;;5087129;27;44198;-70
2022/01/18 08:02:46;;;;;;;4.07;3.97;;;16.40;65.30;;;;;;5053410;28;43913;-71
2022/01/18 08:05:17;;;;;;;3.97;3.87;;;16.40;65.40;;;;;;5069919;28;45029;-71
2022/01/18 08:07:45;;;;;;;4.00;3.90;;;16.40;65.50;;;;;;5069875;28;43965;-70
2022/01/18 08:10:16;;;;;;;4.63;4.43;;;16.30;65.50;;;;;;5070078;28;43798;-71
2022/01/18 08:12:44;;;;;;;4.30;4.20;;;16.30;65.80;;;;;;5085715;27;43947;-71
2022/01/18 08:15:15;;;;;;;3.83;3.73;;;16.30;65.80;;;;;;5069467;28;44008;-70
2022/01/18 08:17:53;;;;;;;4.20;4.00;;;16.20;65.80;;;;;;5071568;28;43450;-71
2022/01/18 08:20:22;;;;;;;4.23;4.13;;;16.20;66.00;;;;;;5086785;28;43896;-70
2022/01/18 08:22:51;;;;;;;3.77;3.67;;;16.20;66.00;;;;;;5052974;28;45283;-70
2022/01/18 08:25:19;;;;;;;4.27;4.07;;;16.20;66.20;;;;;;5086427;27;43430;-70
2022/01/18 08:27:48;;;;;;;3.73;3.63;;;16.10;66.10;;;;;;5069879;28;44313;-70
2022/01/18 08:30:17;;;;;;;3.90;3.80;;;16.10;66.10;;;;;;5069190;28;43440;-71
2022/01/18 08:32:45;;;;;;;3.70;3.60;;;16.10;66.40;;;;;;5069635;28;44037;-70
2022/01/18 08:35:13;;;;;;;4.20;4.10;;;16.20;66.30;;;;;;5085961;27;44009;-70
2022/01/18 08:37:43;;;;;;;3.97;3.87;;;16.30;65.80;;;;;;5069409;28;43405;-70
2022/01/18 08:40:13;;;;;;;3.90;3.80;;;16.50;65.30;;;;;;5086241;28;44004;-70
2022/01/18 08:42:41;;;;;;;4.33;4.20;;;16.70;64.90;;;;;;5085907;28;45579;-71
2022/01/18 08:45:11;;;;;;;3.60;3.50;;;16.70;64.40;;;;;;5069178;28;46023;-70
2022/01/18 08:47:39;;;;;;;4.27;4.07;;;16.70;64.30;;;;;;5069392;28;44074;-70
2022/01/18 08:50:09;;;;;;;4.17;4.07;;;16.60;64.50;;;;;;5087606;27;43936;-70
2022/01/18 08:52:37;;;;;;;3.80;3.70;;;16.60;64.80;;;;;;5078849;28;45309;-70
2022/01/18 08:55:08;;;;;;;4.23;4.07;;;16.50;64.80;;;;;;5062566;28;43965;-71
2022/01/18 08:57:37;;;;;;;4.37;4.17;;;16.50;65.00;;;;;;5059478;28;44006;-70
2022/01/18 09:00:09;;;;;;;3.90;3.80;;;16.40;65.10;;;;;;5086066;27;43902;-71
2022/01/18 09:02:38;;;;;;;3.83;3.73;;;16.40;65.30;;;;;;5069354;28;44114;-70
2022/01/18 09:05:08;;;;;;;3.63;3.53;;;16.40;65.40;;;;;;5085627;28;44028;-70
2022/01/18 09:07:39;;;;;;;3.60;3.50;;;16.40;65.40;;;;;;5068864;28;43997;-70
2022/01/18 09:10:12;;;;;;;3.90;3.80;;;16.30;65.40;;;;;;5069457;28;44007;-70
2022/01/18 09:12:40;;;;;;;3.80;3.70;;;16.30;65.60;;;;;;5068578;28;44202;-70
2022/01/18 09:15:10;;;;;;;3.60;3.50;;;16.40;65.80;;;;;;5068844;28;43965;-71
2022/01/18 09:17:39;;;;;;;4.13;4.00;;;16.50;65.30;;;;;;5068769;28;43393;-70
2022/01/18 09:20:09;;;;;;;3.40;3.30;;;16.50;64.80;;;;;;5086108;28;44635;-71
2022/01/18 09:22:38;;;;;;;3.60;3.40;;;16.50;64.70;;;;;;5085921;28;43844;-71
2022/01/18 09:25:11;;;;;;;3.60;3.50;;;16.50;64.80;;;;;;5085420;27;43994;-70
2022/01/18 09:27:40;;;;;;;3.60;3.40;;;16.40;64.90;;;;;;5085324;28;44071;-71
2022/01/18 09:30:12;;;;;;;3.67;3.57;;;16.40;65.10;;;;;;5085145;28;43985;-70
2022/01/18 09:32:40;;;;;;;3.30;3.20;;;16.30;65.20;;;;;;5068738;28;46300;-71
2022/01/18 09:35:10;;;;;;;3.30;3.20;;;16.30;65.40;;;;;;5068512;28;43978;-70
2022/01/18 09:37:38;;;;;;;3.73;3.63;;;16.30;65.50;;;;;;5085213;28;43878;-70
2022/01/18 09:40:14;;;;;;;4.00;3.70;;;16.30;65.70;;;;;;5069360;28;44128;-70
2022/01/18 09:42:44;;;;;;;4.30;4.00;;;16.20;65.60;;;;;;5068536;28;44045;-70
2022/01/18 09:45:13;;;;;;;4.73;4.43;;;16.20;65.70;;;;;;5051631;28;44441;-72
2022/01/18 09:47:42;;;;;;;9.10;5.17;;;16.20;65.80;;;;;;5061804;28;43895;-71
2022/01/18 09:50:12;;;;;;;5.17;4.77;;;16.20;65.70;;;;;;5049143;28;43935;-71
2022/01/18 09:52:41;;;;;;;7.37;5.47;;;16.10;65.90;;;;;;5062138;28;43976;-70
2022/01/18 09:55:11;;;;;;;9.73;5.60;;;16.20;66.10;;;;;;5068296;28;44035;-70
2022/01/18 09:57:39;;;;;;;12.27;6.00;;;16.40;65.80;;;;;;5084902;28;43452;-70
2022/01/18 10:00:09;;;;;;;12.63;6.43;;;16.50;65.20;;;;;;5052033;28;43591;-72
2022/01/18 10:02:40;;;;;;;12.53;6.93;;;16.70;64.70;;;;;;5084905;28;45987;-70
2022/01/18 10:05:22;;;;;;;16.00;7.20;;;16.80;64.20;;;;;;5068021;28;46011;-71
2022/01/18 10:07:58;;;;;;;11.77;6.97;;;16.70;64.00;;;;;;5086693;27;44083;-70
2022/01/18 10:10:46;;;;;;;12.23;7.17;;;16.70;64.30;;;;;;5068872;28;43594;-70
2022/01/18 10:13:18;;;;;;;18.23;8.03;;;16.60;64.50;;;;;;5068083;28;44116;-71
2022/01/18 10:16:00;;;;;;;13.43;7.40;;;16.50;64.70;;;;;;5068116;28;43956;-70
2022/01/18 10:18:39;;;;;;;15.30;7.73;;;16.50;64.90;;;;;;5085176;28;43396;-70
2022/01/18 10:21:08;;;;;;;13.87;8.00;;;16.40;65.00;;;;;;5052239;28;43937;-70
2022/01/18 10:23:36;;;;;;;15.07;7.47;;;16.40;65.10;;;;;;5068039;28;44005;-71
2022/01/18 10:26:18;;;;;;;13.17;7.60;;;16.40;65.30;;;;;;5067808;28;44136;-69
2022/01/18 10:28:46;;;;;;;17.33;8.23;;;16.30;65.40;;;;;;5061695;28;44090;-70
2022/01/18 10:31:25;;;;;;;18.03;8.00;;;16.30;65.50;;;;;;5079273;28;43961;-70
2022/01/18 10:34:12;;;;;;;18.47;9.00;;;16.30;65.50;;;;;;5084578;28;43984;-71
2022/01/18 10:36:52;;;;;;;17.33;8.37;;;16.30;65.70;;;;;;5069578;28;44121;-71
2022/01/18 10:39:22;;;;;;;16.77;8.10;;;16.30;65.60;;;;;;5071798;28;43345;-70
2022/01/18 10:41:52;;;;;;;14.97;8.53;;;16.30;65.70;;;;;;5055030;28;44067;-70
2022/01/18 10:44:20;;;;;;;17.77;9.20;;;16.30;65.80;;;;;;5088213;27;44949;-71
2022/01/18 10:46:50;;;;;;;15.17;8.60;;;16.20;65.70;;;;;;5071077;28;45398;-70
2022/01/18 10:49:39;;;;;;;18.40;8.57;;;16.20;65.90;;;;;;5065410;28;44007;-70
2022/01/18 10:52:15;;;;;;;15.77;7.93;;;16.30;66.10;;;;;;5056526;28;43980;-71
2022/01/18 10:54:45;;;;;;;16.90;8.03;;;16.40;65.80;;;;;;5070588;28;44140;-70
2022/01/18 10:57:19;;;;;;;13.37;7.73;;;16.60;65.40;;;;;;5088964;27;44047;-71
2022/01/18 10:59:47;;;;;;;15.17;8.33;;;16.70;64.90;;;;;;5071063;28;43874;-70
2022/01/18 11:02:17;;;;;;;15.67;8.17;;;16.90;64.40;;;;;;5071424;28;43495;-71
2022/01/18 11:04:47;;;;;;;14.33;7.30;;;17.10;63.80;;;;;;5087348;28;45762;-70
2022/01/18 11:07:17;;;;;;;15.50;8.07;;;17.30;63.20;;;;;;5070523;28;44678;-71
2022/01/18 11:09:46;;;;;;;14.10;7.93;;;17.50;62.80;;;;;;5054319;28;43992;-70
2022/01/18 11:12:16;;;;;;;13.13;7.90;;;17.60;62.20;;;;;;5071141;28;43993;-71
2022/01/18 11:14:47;;;;;;;14.87;8.40;;;17.70;62.00;;;;;;5087615;28;44080;-72
2022/01/18 11:17:22;;;;;;;16.37;8.07;;;17.70;61.70;;;;;;5064059;28;43988;-70
2022/01/18 11:19:54;;;;;;;16.67;7.87;;;17.70;61.70;;;;;;5082244;28;43385;-70
2022/01/18 11:22:24;;;;;;;14.33;7.70;;;17.60;61.80;;;;;;5054545;28;44050;-70
2022/01/18 11:24:56;;;;;;;13.43;7.47;;;17.40;62.10;;;;;;5087317;27;43555;-71
2022/01/18 11:27:27;;;;;;;15.37;7.37;;;17.20;62.50;;;;;;5087107;28;44689;-70
2022/01/18 11:29:56;;;;;;;9.83;6.53;;;17.10;63.10;;;;;;5069968;28;44075;-71
2022/01/18 11:32:25;;;;;;;14.67;7.70;;;16.90;63.40;;;;;;5071020;28;43492;-70
2022/01/18 11:34:58;;;;;;;13.43;7.53;;;16.80;63.80;;;;;;5070417;28;43920;-70
2022/01/18 11:37:29;;;;;;;15.80;7.90;;;16.80;64.10;;;;;;5087174;28;43963;-71
2022/01/18 11:39:59;;;;;;;11.90;7.00;;;16.70;64.40;;;;;;5053567;28;44019;-70
2022/01/18 11:42:46;;;;;;;11.30;7.00;;;16.60;64.70;;;;;;5087482;28;44023;-71
2022/01/18 11:45:39;;;;;;;11.43;7.20;;;16.60;64.90;;;;;;5053760;28;45710;-71
2022/01/18 11:48:16;;;;;;;14.67;7.47;;;16.70;64.50;;;;;;5069520;28;43881;-71
2022/01/18 11:50:47;;;;;;;13.77;7.03;;;16.80;64.30;;;;;;5070003;28;44019;-70
2022/01/18 11:53:39;;;;;;;12.87;6.50;;;16.80;64.20;;;;;;5070710;28;43895;-71
2022/01/18 11:56:11;;;;;;;13.30;7.83;;;16.70;64.30;;;;;;5073138;28;45219;-71
2022/01/18 11:58:42;;;;;;;12.77;7.30;;;16.60;64.50;;;;;;5070761;28;44039;-70
2022/01/18 12:01:12;;;;;;;13.00;7.40;;;16.60;64.80;;;;;;5086649;28;43901;-70
2022/01/18 12:03:44;;;;;;;13.67;7.10;;;16.50;64.70;;;;;;5070533;28;44097;-71
2022/01/18 12:06:12;;;;;;;8.60;6.10;;;16.50;65.00;;;;;;5069751;28;45154;-70
2022/01/18 12:08:42;;;;;;;10.70;6.50;;;16.40;65.10;;;;;;5052955;28;44187;-70
2022/01/18 12:11:12;;;;;;;9.53;6.40;;;16.40;65.30;;;;;;5088268;27;43569;-71
2022/01/18 12:13:57;;;;;;;10.47;6.20;;;16.40;65.50;;;;;;5070070;28;44011;-70
2022/01/18 12:16:28;;;;;;;12.87;7.10;;;16.30;65.40;;;;;;5063713;28;45636;-70
2022/01/18 12:19:02;;;;;;;9.57;6.30;;;16.30;65.50;;;;;;5063584;28;45597;-70
2022/01/18 12:21:30;;;;;;;9.73;6.10;;;16.30;65.80;;;;;;5069714;28;43977;-69
2022/01/18 12:23:59;;;;;;;9.07;5.87;;;16.40;65.70;;;;;;5086710;28;43901;-70
2022/01/18 12:26:39;;;;;;;8.43;5.77;;;16.60;65.40;;;;;;5069237;28;44037;-71
2022/01/18 12:29:34;;;;;;;7.80;6.47;;;16.70;64.90;;;;;;5086651;28;44357;-70
2022/01/18 12:35:07;;;;;;;8.43;5.80;;;16.90;64.00;;;;;;5072421;28;44015;-70
2022/01/18 12:37:37;;;;;;;8.93;5.87;;;16.80;64.00;;;;;;5084461;28;44976;-70
2022/01/18 12:40:23;;;;;;;6.57;5.33;;;16.80;64.20;;;;;;5086076;28;43999;-71
2022/01/18 12:45:56;;;;;;;8.37;5.77;;;16.60;64.50;;;;;;5072665;28;43991;-70
2022/01/18 12:48:24;;;;;;;6.97;5.07;;;16.60;64.90;;;;;;5069023;28;45467;-70
2022/01/18 12:50:55;;;;;;;7.10;5.37;;;16.60;64.90;;;;;;5052588;28;43949;-70
2022/01/18 12:53:25;;;;;;;7.33;5.20;;;16.50;65.00;;;;;;5066015;28;43363;-70
2022/01/18 12:55:58;;;;;;;7.10;5.20;;;16.50;65.20;;;;;;5064030;28;44012;-71
2022/01/18 12:58:27;;;;;;;6.90;5.00;;;16.40;65.10;;;;;;5086742;27;43913;-71
2022/01/18 13:00:58;;;;;;;7.00;5.13;;;16.40;65.40;;;;;;5052262;28;43826;-71
2022/01/18 13:03:27;;;;;;;7.03;4.63;;;16.50;65.40;;;;;;5052507;28;43986;-70
2022/01/18 13:05:57;;;;;;;6.90;5.10;;;16.60;65.00;;;;;;5069425;28;43419;-70
2022/01/18 13:08:29;;;;;;;5.27;4.27;;;16.60;64.60;;;;;;5068769;28;43884;-70
2022/01/18 13:10:57;;;;;;;6.53;4.87;;;16.60;64.60;;;;;;5068878;28;44344;-70
2022/01/18 13:13:30;;;;;;;5.57;4.47;;;16.60;64.80;;;;;;5068903;28;44059;-70
2022/01/18 13:22:53;;;;;;;5.43;4.43;;;16.50;64.70;;;;;;5086101;28;43565;-71
2022/01/18 13:24:59;;;;;;;5.40;4.20;;;16.40;65.40;;;;;;5082156;28;43981;-71
2022/01/18 13:27:33;;;;;;;5.50;4.10;;;16.30;65.40;;;;;;5071362;28;44020;-71
2022/01/18 13:30:20;;;;;;;5.80;4.30;;;16.30;65.60;;;;;;5067818;28;44936;-71
2022/01/18 13:32:53;;;;;;;4.37;3.97;;;16.30;65.70;;;;;;5083999;28;43978;-70
2022/01/18 13:35:24;;;;;;;5.23;4.30;;;16.30;65.80;;;;;;5068804;28;43929;-70
2022/01/18 13:37:55;;;;;;;4.30;3.77;;;16.30;65.80;;;;;;5085972;28;43497;-70
2022/01/18 13:40:30;;;;;;;5.03;4.07;;;16.30;66.00;;;;;;5086368;27;44093;-70
2022/01/18 13:43:03;;;;;;;3.87;3.40;;;16.40;65.90;;;;;;5085104;28;43912;-70
2022/01/18 13:45:35;;;;;;;4.17;3.77;;;16.50;65.50;;;;;;5068724;28;43918;-71
2022/01/18 13:48:10;;;;;;;4.63;3.63;;;16.70;64.90;;;;;;5085336;28;43916;-71
2022/01/18 13:50:56;;;;;;;4.10;3.63;;;16.80;64.40;;;;;;5084878;28;44063;-70
2022/01/18 13:53:29;;;;;;;4.17;3.53;;;16.90;64.10;;;;;;5079794;28;44032;-70
2022/01/18 13:56:02;;;;;;;3.60;3.40;;;16.80;64.00;;;;;;5084593;28;43986;-70
2022/01/18 13:58:33;;;;;;;4.37;3.50;;;16.80;64.20;;;;;;5069133;28;43997;-70
2022/01/18 14:01:10;;;;;;;3.60;3.30;;;16.70;64.50;;;;;;5068078;28;44089;-71
2022/01/18 14:03:41;;;;;;;3.97;3.57;;;16.60;64.70;;;;;;5064663;28;44041;-70
2022/01/18 14:06:14;;;;;;;3.90;3.60;;;16.60;64.80;;;;;;5052284;28;44010;-70
2022/01/18 14:08:55;;;;;;;4.07;3.67;;;16.50;65.00;;;;;;5086837;27;44259;-71